Terminal Aerodrome Forecast
Issued by NWS

Home | Current Version | Previous Version | Graphics & Text | Print | Product List | Glossary On
Versions: 1 2 3 4 5 6 7 8 9 10 11 12 13 14 15 16 17
000
FTUS43 KEAX 272300
TAFMKC
TAF
KMKC 272337Z 2800/2824 17006KT P6SM BKN250
      TEMPO 2810/2814 13007KT P6SM BKN030
     FM281400 14010KT P6SM SCT035 BKN180
     FM282200 18012KT P6SM VCTS BKN035CB=

USA.gov is the U.S. government's official web portal to all federal, state and local government web resources and services.